Flight Track Log - Related Links

Times and Time Zones

All times are in EDT time to prevent confusion due to time zone crossing. See the ACA796 flight status page for this flight to view local times or setup timezone preferences in your user account.

Time Position Orientation Groundspeed Altitude Reporting Facility
EDT Latitude Longitude Course Direction KTS MPH feet Rate Location/Type
Mon 07:00:26 PM 33.9464 -118.4417 265° West 160 184 1,400  Level Los Angeles Center
Mon 07:01:28 PM 33.9417 -118.5108 265° West 205 236 3,000 2,049 Climbing Los Angeles Center
Mon 07:02:29 PM 33.9314 -118.6008 262° West 252 290 5,600 2,585 Climbing Los Angeles Center
Mon 07:03:31 PM 33.8669 -118.6344 203° Southwest 275 316 8,300 2,468 Climbing Los Angeles Center
Mon 07:04:33 PM 33.8339 -118.5547 117° Southeast 294 338 10,700 2,032 Climbing Los Angeles Center
Mon 07:05:35 PM 33.9008 -118.4697 46° Northeast 345 397 12,500 1,984 Climbing Los Angeles Center
Mon 07:06:37 PM 33.9656 -118.3769 50° Northeast 363 418 14,800 2,177 Climbing Los Angeles Center
Mon 07:07:39 PM 34.0250 -118.2714 56° Northeast 375 432 17,000 1,984 Climbing Los Angeles Center
Mon 07:08:41 PM 34.0864 -118.1639 55° Northeast 383 441 18,900 1,790 Climbing Los Angeles Center
Mon 07:09:43 PM 34.1572 -118.0575 51° Northeast 400 460 20,700 1,645 Climbing Los Angeles Center
Mon 07:10:45 PM 34.2300 -117.9517 50° Northeast 407 468 22,300 1,463 Climbing Los Angeles Center
Mon 07:11:46 PM 34.3061 -117.8408 50° Northeast 424 488 23,700 1,415 Climbing Los Angeles Center
Mon 07:12:48 PM 34.3911 -117.7192 50° Northeast 440 506 25,200 1,452 Climbing Los Angeles Center
Mon 07:13:50 PM 34.4711 -117.6003 51° Northeast 455 524 26,700 1,403 Climbing Los Angeles Center
Mon 07:14:52 PM 34.5675 -117.4575 51° Northeast 459 528 28,100 1,210 Climbing Los Angeles Center
Mon 07:15:54 PM 34.6497 -117.3353 51° Northeast 470 541 29,200 1,065 Climbing Los Angeles Center
Mon 07:16:56 PM 34.7331 -117.2108 51° Northeast 477 549 30,300 968 Climbing Los Angeles Center
Mon 07:17:58 PM 34.8181 -117.0853 50° Northeast 485 558 31,200 968 Climbing Los Angeles Center
Mon 07:19:00 PM 34.9033 -116.9564 51° Northeast 491 565 32,300 1,065 Climbing Los Angeles Center
Mon 07:20:02 PM 35.0072 -116.8011 51° Northeast 494 568 33,400 976 Climbing Los Angeles Center
Mon 07:21:03 PM 35.0931 -116.6725 51° Northeast 495 570 34,300 829 Climbing Los Angeles Center
Mon 07:22:05 PM 35.1803 -116.5417 51° Northeast 497 572 35,100 677 Climbing Los Angeles Center
Mon 07:23:07 PM 35.2672 -116.4111 51° Northeast 496 571 35,700 581 Climbing Los Angeles Center
Mon 07:24:09 PM 35.3553 -116.2778 51° Northeast 502 578 36,300 581 Climbing Los Angeles Center
Mon 07:25:11 PM 35.4414 -116.1433 52° Northeast 503 579 36,900 336 Climbing Los Angeles Center
Mon 07:26:14 PM 35.5483 -115.9828 51° Northeast 507 583 37,000 48 Climbing Los Angeles Center
Mon 07:27:15 PM 35.6319 -115.8539 51° Northeast 509 586 37,000  Level Los Angeles Center
Mon 07:28:17 PM 35.7192 -115.7200 51° Northeast 504 580 37,000  Level Los Angeles Center
Mon 07:29:19 PM 35.8244 -115.5578 51° Northeast 506 582 37,000  Level Los Angeles Center
Mon 07:30:21 PM 35.9111 -115.4222 52° Northeast 508 585 37,000  Level Los Angeles Center
Mon 07:31:23 PM 35.9975 -115.2864 52° Northeast 508 585 37,000  Level Los Angeles Center
Mon 07:32:25 PM 36.0825 -115.1508 52° Northeast 504 580 37,000  Level Los Angeles Center
Mon 07:33:27 PM 36.1567 -115.0022 58° Northeast 511 588 37,000  Level Los Angeles Center
Mon 07:34:29 PM 36.2464 -114.8242 58° Northeast 511 588 37,000  Level Los Angeles Center
Mon 07:35:31 PM 36.3211 -114.6736 58° Northeast 513 590 37,000  Level Los Angeles Center
Mon 07:36:33 PM 36.3950 -114.5225 59° Northeast 514 592 37,000  Level Los Angeles Center
Mon 07:37:35 PM 36.4694 -114.3722 58° Northeast 512 589 37,000  Level Los Angeles Center
Mon 07:38:37 PM 36.5447 -114.2222 58° Northeast 512 589 37,000  Level Los Angeles Center
Mon 07:39:39 PM 36.6297 -114.0483 59° Northeast 510 587 37,000  Level Los Angeles Center
Mon 07:40:41 PM 36.7042 -113.8981 58° Northeast 510 587 37,000  Level Los Angeles Center
Mon 07:41:43 PM 36.7778 -113.7469 59° Northeast 511 588 37,000  Level Los Angeles Center
Mon 07:42:45 PM 36.8497 -113.5967 59° Northeast 508 585 37,000  Level Los Angeles Center
Mon 07:43:47 PM 36.9239 -113.4464 58° Northeast 509 586 37,000  Level Los Angeles Center
Mon 07:44:49 PM 36.9956 -113.2956 59° Northeast 507 583 37,000  Level Los Angeles Center
Mon 07:45:50 PM 37.0847 -113.1142 58° Northeast 510 587 37,000  Level Los Angeles Center
Mon 07:46:52 PM 37.1564 -112.9622 59° Northeast 509 586 37,000  Level Los Angeles Center
Mon 07:47:36 PM 37.1978 -112.8719 60° Northeast 509 586 37,000  Level Salt Lake Center
Mon 07:48:38 PM 37.2844 -112.6900 59° Northeast 511 588 37,000  Level Salt Lake Center
Mon 07:49:40 PM 37.3547 -112.5372 60° Northeast 512 589 37,000  Level Salt Lake Center
Mon 07:50:41 PM 37.4269 -112.3864 59° Northeast 511 588 37,000  Level Salt Lake Center
Mon 07:51:43 PM 37.4978 -112.2347 59° Northeast 509 586 37,000  Level Salt Lake Center
Mon 07:52:45 PM 37.5689 -112.0814 60° Northeast 509 586 37,000  Level Salt Lake Center
Mon 07:53:47 PM 37.6542 -111.8964 60° Northeast 511 588 37,000  Level Salt Lake Center
Mon 07:54:49 PM 37.7244 -111.7403 60° Northeast 513 590 37,000  Level Salt Lake Center
Mon 07:55:50 PM 37.7953 -111.5864 60° Northeast 510 587 37,000  Level Salt Lake Center
Mon 07:56:52 PM 37.8669 -111.4331 59° Northeast 509 586 37,000  Level Salt Lake Center
Mon 07:57:54 PM 37.9369 -111.2775 60° Northeast 509 586 37,000  Level Salt Lake Center
Mon 07:58:56 PM 38.0069 -111.1228 60° Northeast 508 585 37,000  Level Salt Lake Center
Mon 07:59:57 PM 38.0758 -110.9678 61° Northeast 507 583 37,000  Level Salt Lake Center
Mon 08:00:59 PM 38.1594 -110.7814 60° Northeast 510 587 37,000  Level Salt Lake Center
Mon 08:02:01 PM 38.2258 -110.6317 61° Northeast 509 586 37,000  Level Salt Lake Center
Mon 08:03:02 PM 38.3028 -110.4556 61° Northeast 509 586 37,000  Level Salt Lake Center
Mon 08:04:04 PM 38.3683 -110.3050 61° Northeast 510 587 37,000  Level Salt Lake Center
Mon 08:05:06 PM 38.4339 -110.1547 61° Northeast 508 585 37,000  Level Salt Lake Center
Mon 08:06:08 PM 38.5103 -109.9797 61° Northeast 507 583 37,000  Level Salt Lake Center
Mon 08:07:09 PM 38.5714 -109.8258 63° Northeast 508 585 37,000  Level Salt Lake Center
Mon 08:08:11 PM 38.6414 -109.6458 63° Northeast 508 585 37,000  Level Salt Lake Center
Mon 08:09:13 PM 38.7019 -109.4917 63° Northeast 507 583 37,000  Level Salt Lake Center
Mon 08:10:15 PM 38.7725 -109.3119 63° Northeast 507 583 37,000  Level Salt Lake Center
Mon 08:11:16 PM 38.8319 -109.1575 64° Northeast 507 583 37,000  Level Salt Lake Center
Mon 08:12:18 PM 38.9031 -108.9775 63° Northeast 507 583 37,000  Level Salt Lake Center
Mon 08:13:20 PM 38.9622 -108.8222 64° Northeast 509 586 37,000  Level Salt Lake Center
Mon 08:14:21 PM 39.0225 -108.6353 67° East 509 586 37,000  Level Salt Lake Center
Mon 08:15:23 PM 39.0722 -108.4742 68° East 510 587 37,000  Level Salt Lake Center
Mon 08:16:25 PM 39.1281 -108.2822 69° East 515 593 37,000  Level Salt Lake Center
Mon 08:17:51 PM 39.2042 -108.0319 69° East 516 594 37,000  Level Denver Center
Mon 08:18:53 PM 39.2511 -107.8658 70° East 518 596 37,000  Level Denver Center
Mon 08:19:55 PM 39.3058 -107.6706 70° East 521 600 37,000  Level Denver Center
Mon 08:20:57 PM 39.3572 -107.5042 68° East 523 602 37,000  Level Denver Center
Mon 08:21:59 PM 39.3900 -107.3308 76° East 521 600 37,000  Level Denver Center
Mon 08:23:01 PM 39.4300 -107.1278 76° East 521 600 37,000  Level Denver Center
Mon 08:24:03 PM 39.4597 -106.9567 77° East 513 590 37,000  Level Denver Center
Mon 08:25:05 PM 39.5106 -106.7589 72° East 528 608 37,000 -48 Level Denver Center
Mon 08:26:07 PM 39.5633 -106.5989 67° East 511 588 36,900  Descending Denver Center
Mon 08:27:09 PM 39.6192 -106.4367 66° East 508 585 37,000 48 Climbing Denver Center
Mon 08:28:11 PM 39.6853 -106.2436 66° East 505 581 37,000  Level Denver Center
Mon 08:29:13 PM 39.7414 -106.0789 66° East 501 577 37,000  Level Denver Center
Mon 08:30:15 PM 39.7972 -105.9111 67° East 504 580 37,000  Level Denver Center
Mon 08:31:17 PM 39.8539 -105.7386 67° East 517 595 37,000  Level Denver Center
Mon 08:32:19 PM 39.9106 -105.5672 67° East 511 588 37,000 48 Level Denver Center
Mon 08:33:21 PM 39.9758 -105.3603 68° East 512 589 37,100  Climbing Denver Center
Mon 08:34:24 PM 40.0317 -105.1903 67° East 510 587 37,000 -48 Descending Denver Center
Mon 08:35:25 PM 40.0875 -105.0186 67° East 509 586 37,000  Level Denver Center
Mon 08:36:27 PM 40.1439 -104.8467 67° East 509 586 37,000  Level Denver Center
Mon 08:37:29 PM 40.1961 -104.6769 68° East 505 581 37,000  Level Denver Center
Mon 08:38:31 PM 40.2511 -104.5044 67° East 511 588 37,000  Level Denver Center
Mon 08:39:33 PM 40.3022 -104.3369 68° East 496 571 37,000  Level Denver Center
Mon 08:40:35 PM 40.3569 -104.1650 67° East 507 583 37,000  Level Denver Center
Mon 08:41:36 PM 40.4203 -103.9619 68° East 499 574 37,000  Level Denver Center
Mon 08:42:39 PM 40.4728 -103.7931 68° East 493 567 37,000  Level Denver Center
Mon 08:43:40 PM 40.5256 -103.6211 68° East 508 585 37,000  Level Denver Center
Mon 08:44:42 PM 40.5794 -103.4494 67° East 509 586 37,000  Level Denver Center
Mon 08:45:43 PM 40.6303 -103.2772 69° East 507 583 37,000  Level Denver Center
Mon 08:46:57 PM 40.6828 -103.1047 68° East 507 583 37,000  Level Denver Center
Mon 08:47:59 PM 40.7483 -102.8842 69° East 504 580 37,000  Level Denver Center
Mon 08:49:01 PM 40.8050 -102.6919 69° East 502 578 37,000  Level Denver Center
Mon 08:50:03 PM 40.8544 -102.5261 68° East 505 581 37,000  Level Denver Center
Mon 08:51:05 PM 40.9025 -102.3600 69° East 506 582 37,000  Level Denver Center
Mon 08:52:06 PM 40.9583 -102.1650 69° East 507 583 37,000  Level Denver Center
Mon 08:53:08 PM 41.0044 -102.0000 70° East 501 577 37,000  Level Denver Center
Mon 08:54:10 PM 41.0617 -101.8056 69° East 503 579 37,000  Level Denver Center
Mon 08:55:12 PM 41.1106 -101.6375 69° East 509 586 37,000  Level Denver Center
Mon 08:56:13 PM 41.1661 -101.4406 69° East 508 585 37,000  Level Denver Center
Mon 08:57:15 PM 41.2131 -101.2722 70° East 507 583 37,000  Level Denver Center
Mon 08:58:17 PM 41.2611 -101.1025 69° East 509 586 37,000  Level Denver Center
Mon 08:59:19 PM 41.3153 -100.9050 70° East 507 583 37,000  Level Denver Center
Mon 09:00:21 PM 41.3619 -100.7367 70° East 506 582 37,000  Level Denver Center
Mon 09:01:22 PM 41.4150 -100.5403 70° East 504 580 37,000  Level Denver Center
Mon 09:02:24 PM 41.4608 -100.3719 70° East 503 579 37,000  Level Denver Center
Mon 09:03:26 PM 41.5056 -100.2050 70° East 500 575 37,000  Level Denver Center
Mon 09:04:28 PM 41.5589 -100.0100 70° East 499 574 37,000  Level Denver Center
Mon 09:05:30 PM 41.6025 -99.8431 71° East 498 573 37,000  Level Denver Center
Mon 09:06:31 PM 41.6536 -99.6464 71° East 496 571 37,000  Level Denver Center
Mon 09:07:33 PM 41.6989 -99.4719 71° East 494 568 37,000  Level Denver Center
Mon 09:08:09 PM 41.7267 -99.3675 70° East 495 570 37,000  Level Minneapolis Center
Mon 09:09:11 PM 41.7706 -99.1922 71° East 494 568 37,000  Level Minneapolis Center
Mon 09:10:13 PM 41.8158 -99.0167 71° East 495 570 37,000  Level Minneapolis Center
Mon 09:11:15 PM 41.8606 -98.8406 71° East 496 571 37,000  Level Minneapolis Center
Mon 09:12:17 PM 41.9053 -98.6642 71° East 498 573 37,000  Level Minneapolis Center
Mon 09:13:19 PM 41.9497 -98.4881 71° East 497 572 37,000  Level Minneapolis Center
Mon 09:14:21 PM 41.9928 -98.3114 72° East 496 571 37,000  Level Minneapolis Center
Mon 09:15:23 PM 42.0372 -98.1311 72° East 497 572 37,000  Level Minneapolis Center
Mon 09:16:25 PM 42.0897 -97.9192 71° East 498 573 37,000  Level Minneapolis Center
Mon 09:17:27 PM 42.1333 -97.7417 72° East 498 573 37,000  Level Minneapolis Center
Mon 09:18:29 PM 42.1753 -97.5636 72° East 498 573 37,000  Level Minneapolis Center
Mon 09:19:31 PM 42.2167 -97.3864 72° East 497 572 37,000  Level Minneapolis Center
Mon 09:20:33 PM 42.2597 -97.2081 72° East 498 573 37,000  Level Minneapolis Center
Mon 09:21:36 PM 42.3003 -97.0300 73° East 496 571 37,000  Level Minneapolis Center
Mon 09:22:38 PM 42.3503 -96.8178 72° East 494 568 37,000  Level Minneapolis Center
Mon 09:23:52 PM 42.3994 -96.6042 73° East 495 570 37,000  Level Minneapolis Center
Mon 09:24:54 PM 42.4397 -96.4247 73° East 496 571 37,000  Level Minneapolis Center
Mon 09:25:56 PM 42.4803 -96.2469 73° East 494 568 37,000  Level Minneapolis Center
Mon 09:26:58 PM 42.5206 -96.0672 73° East 498 573 37,000  Level Minneapolis Center
Mon 09:28:00 PM 42.5611 -95.8878 73° East 498 573 37,000  Level Minneapolis Center
Mon 09:29:02 PM 42.6014 -95.7042 73° East 500 575 37,000  Level Minneapolis Center
Mon 09:30:04 PM 42.6472 -95.4883 74° East 500 575 37,000  Level Minneapolis Center
Mon 09:31:06 PM 42.6881 -95.3081 73° East 499 574 37,000  Level Minneapolis Center
Mon 09:32:08 PM 42.7258 -95.1264 74° East 499 574 37,000  Level Minneapolis Center
Mon 09:33:10 PM 42.7642 -94.9506 73° East 495 570 37,000  Level Minneapolis Center
Mon 09:34:12 PM 42.8019 -94.7694 74° East 497 572 37,000  Level Minneapolis Center
Mon 09:35:14 PM 42.8419 -94.5794 74° East 498 573 37,000  Level Minneapolis Center
Mon 09:36:16 PM 42.8789 -94.3992 74° East 498 573 37,000  Level Minneapolis Center
Mon 09:37:18 PM 42.9150 -94.2183 75° East 499 574 37,000  Level Minneapolis Center
Mon 09:38:19 PM 42.9578 -94.0019 75° East 498 573 37,000  Level Minneapolis Center
Mon 09:39:21 PM 42.9950 -93.8225 74° East 497 572 37,000  Level Minneapolis Center
Mon 09:40:23 PM 43.0325 -93.6431 74° East 496 571 37,000  Level Minneapolis Center
Mon 09:41:25 PM 43.0686 -93.4625 75° East 496 571 37,000  Level Minneapolis Center
Mon 09:42:26 PM 43.0981 -93.2817 77° East 494 568 37,000  Level Minneapolis Center
Mon 09:43:28 PM 43.1014 -93.0542 89° East 502 578 37,000  Level Minneapolis Center
Mon 09:44:30 PM 43.1056 -92.8664 88° East 501 577 37,000  Level Minneapolis Center
Mon 09:45:32 PM 43.1094 -92.6794 88° East 498 573 37,000  Level Minneapolis Center
Mon 09:46:33 PM 43.1133 -92.5283 88° East 499 574 37,000  Level Minneapolis Center
Mon 09:47:35 PM 43.1169 -92.3022 89° East 498 573 37,000  Level Minneapolis Center
Mon 09:48:05 PM 43.1178 -92.1889 89° East 501 577 37,000  Level Chicago Center
Mon 09:48:37 PM 43.1206 -92.1128 87° East 500 575 37,000  Level Minneapolis Center
Mon 09:49:38 PM 43.1244 -91.9247 88° East 498 573 37,000  Level Minneapolis Center
Mon 09:50:40 PM 43.1283 -91.6961 89° East 499 574 37,000  Level Minneapolis Center
Mon 09:51:42 PM 43.1300 -91.5058 89° East 499 574 37,000  Level Minneapolis Center
Mon 09:52:43 PM 43.1311 -91.3172 89° East 497 572 37,000  Level Minneapolis Center
Mon 09:53:13 PM 43.1317 -91.2433 89° East 498 573 37,000  Level Chicago Center
Mon 09:54:15 PM 43.1328 -91.0533 89° East 501 577 37,000  Level Chicago Center
Mon 09:54:46 PM 43.1328 -90.9381 90° East 501 577 37,000  Level Minneapolis Center
Mon 09:55:17 PM 43.1342 -90.8261 89° East 501 577 37,000  Level Chicago Center
Mon 09:56:18 PM 43.1347 -90.6372 90° East 498 573 37,000  Level Chicago Center
Mon 09:57:20 PM 43.1358 -90.4489 89° East 497 572 37,000  Level Chicago Center
Mon 09:58:22 PM 43.1344 -90.2367 90° East 499 574 37,000  Level Chicago Center
Mon 09:59:23 PM 43.1336 -90.0467 90° East 500 575 37,000  Level Chicago Center
Mon 10:00:25 PM 43.1339 -89.8567 90° East 500 575 37,000  Level Chicago Center
Mon 10:01:27 PM 43.1317 -89.6658 91° East 501 577 37,000  Level Chicago Center
Mon 10:02:28 PM 43.1311 -89.4761 90° East 500 575 37,000  Level Chicago Center
Mon 10:03:30 PM 43.1289 -89.2856 91° East 504 580 37,000  Level Chicago Center
Mon 10:04:31 PM 43.1256 -89.0606 91° East 505 581 37,000  Level Chicago Center
Mon 10:05:33 PM 43.1231 -88.8706 91° East 503 579 37,000  Level Chicago Center
Mon 10:06:35 PM 43.1214 -88.6800 91° East 503 579 37,000  Level Chicago Center
Mon 10:07:36 PM 43.1192 -88.4906 91° East 503 579 37,000  Level Chicago Center
Mon 10:08:38 PM 43.1144 -88.3003 92° East 505 581 37,000  Level Chicago Center
Mon 10:09:39 PM 43.1206 -88.1097 87° East 505 581 37,000  Level Chicago Center
Mon 10:10:41 PM 43.1286 -87.8892 87° East 502 578 37,000  Level Chicago Center
Mon 10:11:42 PM 43.1342 -87.6975 88° East 505 581 37,000  Level Chicago Center
Mon 10:12:44 PM 43.1386 -87.5067 88° East 504 580 37,000  Level Chicago Center
Mon 10:13:45 PM 43.1450 -87.3106 87° East 501 577 37,000  Level Chicago Center
Mon 10:14:47 PM 43.1494 -87.1206 88° East 501 577 37,000  Level Chicago Center
Mon 10:15:48 PM 43.1533 -86.9297 88° East 502 578 37,000  Level Chicago Center
Mon 10:16:50 PM 43.1575 -86.7400 88° East 501 577 37,000  Level Chicago Center
Mon 10:17:51 PM 43.1614 -86.5467 88° East 506 582 37,000  Level Chicago Center
Mon 10:18:53 PM 43.1658 -86.3544 88° East 505 581 37,000  Level Chicago Center
Mon 10:19:54 PM 43.1697 -86.1586 88° East 509 586 37,000  Level Chicago Center
Mon 10:20:56 PM 43.1714 -85.9567 89° East 513 590 37,000  Level Chicago Center
Mon 10:21:58 PM 43.1811 -85.7589 86° East 510 587 37,000  Level Chicago Center
Mon 10:22:59 PM 43.1875 -85.5669 87° East 505 581 37,000  Level Chicago Center
Mon 10:24:01 PM 43.1956 -85.3372 87° East 503 579 37,000  Level Chicago Center
Mon 10:25:02 PM 43.2028 -85.1475 87° East 501 577 37,000  Level Chicago Center
Mon 10:26:04 PM 43.2083 -84.9572 88° East 501 577 37,000  Level Chicago Center
Mon 10:27:05 PM 43.2142 -84.7661 88° East 501 577 37,000  Level Chicago Center
Mon 10:28:07 PM 43.2206 -84.5742 87° East 503 579 37,000  Level Chicago Center
Mon 10:29:09 PM 43.2264 -84.3833 88° East 503 579 37,000  Level Chicago Center
Mon 10:30:10 PM 43.2314 -84.1942 88° East 500 575 37,000  Level Chicago Center
Mon 10:31:12 PM 43.2353 -84.0047 88° East 498 573 37,000  Level Chicago Center
Mon 10:32:13 PM 43.2406 -83.7792 88° East 495 570 37,000  Level Chicago Center
Mon 10:33:15 PM 43.2450 -83.5900 88° East 495 570 37,000 -244 Level Chicago Center
Mon 10:34:16 PM 43.2494 -83.4036 88° East 491 565 36,500 -1,122 Descending Chicago Center
Mon 10:35:18 PM 43.2528 -83.2158 89° East 494 568 34,700 -1,883 Descending Chicago Center
Mon 10:36:33 PM 43.2500 -82.9889 91° East 493 567 32,200 -2,267 Descending Cleveland Center
Mon 10:37:33 PM 43.2536 -82.8094 88° East 486 559 29,600 -1,600 Descending Cleveland Center
Mon 10:38:33 PM 43.2631 -82.6331 86° East 468 539 29,000 -300 Descending Cleveland Center
Mon 10:39:33 PM 43.2806 -82.4567 82° East 468 539 29,000  Level Cleveland Center
Mon 10:40:33 PM 43.2981 -82.2747 82° East 468 539 29,000  Level Cleveland Center
Mon 10:41:33 PM 43.3131 -82.0953 83° East 468 539 29,000  Level Cleveland Center
Mon 10:42:33 PM 43.3319 -81.9189 82° East 468 539 29,000  Level Cleveland Center
Mon 10:43:33 PM 43.3464 -81.7364 84° East 468 539 29,000  Level Cleveland Center
Mon 10:44:40 PM 43.3500 -81.5167 89° East 470 541 29,000 -94 Level Toronto Center
Mon 10:45:40 PM 43.3667 -81.3333 83° East 470 541 28,800 -1,100 Descending Toronto Center
Mon 10:46:40 PM 43.3833 -81.1500 83° East 450 518 26,800 -1,900 Descending Toronto Center
Mon 10:47:40 PM 43.3833 -81.0167 90° East 430 495 25,000 -1,800 Descending Toronto Center
Mon 10:48:40 PM 43.4000 -80.8500 82° East 410 472 23,200 -1,800 Descending Toronto Center
Mon 10:49:40 PM 43.4333 -80.6833 75° East 390 449 21,400 -1,700 Descending Toronto Center
Mon 10:50:40 PM 43.4333 -80.5500 90° East 380 437 19,800 -1,750 Descending Toronto Center
Mon 10:51:40 PM 43.4500 -80.4167 80° East 370 426 17,900 -1,650 Descending Toronto Center
Mon 10:52:40 PM 43.4667 -80.3000 79° East 360 414 16,500 -1,450 Descending Toronto Center
Mon 10:53:40 PM 43.5000 -80.1667 71° East 350 403 15,000 -1,550 Descending Toronto Center
Mon 10:54:40 PM 43.5333 -80.0500 68° East 330 380 13,400 -1,600 Descending Toronto Center
Mon 10:55:40 PM 43.5667 -79.9333 68° East 320 368 11,800 -1,600 Descending Toronto Center
Mon 10:56:40 PM 43.5833 -79.8167 79° East 310 357 10,200 -1,600 Descending Toronto Center
Mon 10:57:40 PM 43.5833 -79.7000 90° East 310 357 8,600 -1,550 Descending Toronto Center
Mon 10:58:40 PM 43.5833 -79.5833 90° East 300 345 7,100 -1,900 Descending Toronto Center
Mon 10:59:40 PM 43.6167 -79.5000 61° Northeast 280 322 4,800 -1,900 Descending Toronto Center
Mon 11:00:40 PM 43.6667 -79.4333 44° Northeast 270 311 3,300 -850 Descending Toronto Center
Mon 11:01:40 PM 43.7000 -79.3500 61° Northeast 220 253 3,100 -150 Descending Toronto Center
Mon 11:02:40 PM 43.7500 -79.3833 334° Northwest 180 207 3,000 -50 Descending Toronto Center
Mon 11:03:40 PM 43.7667 -79.4333 295° West 180 207 3,000 -350 Level Toronto Center
Mon 11:04:40 PM 43.7333 -79.5000 235° Southwest 200 230 2,300 -750 Descending Toronto Center
Mon 11:05:40 PM 43.7000 -79.5333 216° Southwest 170 196 1,500 -700 Descending Toronto Center
Mon 11:06:40 PM 43.6833 -79.5667 235° Southwest 130 150 900 -600 Descending Toronto Center

Login

Don't have an account? Register now (free) for customized features, flight alerts, and more!